createdAt,value
2018-09-05T00:00:16.496Z,8.97
2018-09-05T00:02:48.603Z,10.57
2018-09-05T00:05:20.674Z,11.23
2018-09-05T00:07:52.759Z,10.43
2018-09-05T00:10:24.841Z,10.20
2018-09-05T00:12:56.934Z,12.57
2018-09-05T00:15:28.977Z,11.37
2018-09-05T00:18:01.074Z,10.43
2018-09-05T00:20:33.159Z,11.20
2018-09-05T00:23:05.245Z,12.23
2018-09-05T00:25:37.350Z,10.77
2018-09-05T00:28:09.493Z,12.13
2018-09-05T00:30:41.593Z,11.87
2018-09-05T00:33:13.743Z,11.70
2018-09-05T00:35:45.865Z,12.30
2018-09-05T00:38:17.976Z,14.50
2018-09-05T00:40:50.069Z,13.93
2018-09-05T00:43:22.159Z,13.83
2018-09-05T00:45:54.314Z,14.63
2018-09-05T00:48:26.429Z,14.40
2018-09-05T00:50:58.539Z,13.60
2018-09-05T00:53:30.599Z,15.70
2018-09-05T00:56:02.702Z,13.73
2018-09-05T00:58:34.788Z,16.37
2018-09-05T01:01:06.866Z,15.27
2018-09-05T01:03:39.006Z,18.13
2018-09-05T01:06:11.105Z,17.23
2018-09-05T01:08:43.182Z,15.33
2018-09-05T01:11:15.283Z,15.30
2018-09-05T01:13:47.568Z,15.83
2018-09-05T01:16:19.646Z,16.50
2018-09-05T01:18:51.699Z,13.47
2018-09-05T01:21:23.874Z,15.73
2018-09-05T01:23:55.924Z,17.53
2018-09-05T01:26:28.051Z,14.10
2018-09-05T01:29:00.117Z,16.07
2018-09-05T01:31:32.316Z,15.60
2018-09-05T01:34:04.478Z,17.50
2018-09-05T01:36:36.598Z,16.77
2018-09-05T01:39:08.714Z,17.53
2018-09-05T01:41:40.760Z,18.10
2018-09-05T01:44:12.878Z,19.17
2018-09-05T01:46:44.935Z,16.67
2018-09-05T01:49:17.084Z,18.83
2018-09-05T01:51:53.777Z,16.30
2018-09-05T01:54:25.871Z,14.83
2018-09-05T01:56:58.013Z,15.87
2018-09-05T01:59:30.083Z,17.93
2018-09-05T02:02:02.194Z,19.67
2018-09-05T02:04:34.292Z,18.83
2018-09-05T02:07:06.307Z,18.73
2018-09-05T02:09:38.369Z,17.83
2018-09-05T02:12:10.486Z,16.80
2018-09-05T02:14:42.506Z,17.73
2018-09-05T02:17:14.545Z,18.67
2018-09-05T02:19:46.549Z,19.40
2018-09-05T02:22:18.556Z,17.43
2018-09-05T02:24:50.589Z,16.60
2018-09-05T02:27:22.662Z,17.13
2018-09-05T02:29:54.684Z,16.93
2018-09-05T02:32:26.780Z,17.07
2018-09-05T02:34:58.785Z,17.37
2018-09-05T02:37:31.085Z,15.73
2018-09-05T02:40:03.132Z,14.33
2018-09-05T02:42:35.213Z,14.73
2018-09-05T02:45:07.282Z,13.53
2018-09-05T02:47:39.346Z,15.07
2018-09-05T02:50:11.384Z,17.63
2018-09-05T02:52:43.458Z,18.50
2018-09-05T02:55:21.246Z,19.60
2018-09-05T02:57:53.312Z,24.63
2018-09-05T03:00:25.337Z,25.73
2018-09-05T03:02:57.377Z,25.93
2018-09-05T03:05:29.388Z,27.60
2018-09-05T03:08:01.392Z,26.83
2018-09-05T03:10:33.456Z,26.43
2018-09-05T03:13:05.481Z,27.77
2018-09-05T03:15:37.521Z,31.90
2018-09-05T03:18:09.576Z,31.77
2018-09-05T03:20:41.790Z,31.17
2018-09-05T03:23:13.830Z,33.40
2018-09-05T03:25:45.820Z,31.83
2018-09-05T03:28:17.844Z,31.60
2018-09-05T03:30:49.886Z,33.60
2018-09-05T03:33:21.959Z,34.70
2018-09-05T03:35:53.987Z,31.53
2018-09-05T03:38:26.130Z,33.37
2018-09-05T03:40:58.236Z,32.50
2018-09-05T03:43:30.272Z,33.70
2018-09-05T03:46:02.310Z,34.23
2018-09-05T03:48:34.320Z,31.07
2018-09-05T03:51:06.330Z,30.77
2018-09-05T03:53:38.376Z,31.63
2018-09-05T03:56:10.381Z,30.43
2018-09-05T03:58:42.370Z,31.37
2018-09-05T04:01:14.477Z,29.27
2018-09-05T04:03:46.494Z,30.23
2018-09-05T04:06:19.527Z,30.67
2018-09-05T04:08:52.579Z,31.37
2018-09-05T04:11:24.676Z,28.83
2018-09-05T04:13:56.721Z,28.13
2018-09-05T04:16:28.818Z,30.43
2018-09-05T04:19:00.819Z,29.77
2018-09-05T04:21:32.901Z,32.03
2018-09-05T04:24:04.891Z,30.13
2018-09-05T04:26:36.917Z,30.07
2018-09-05T04:29:08.981Z,31.93
2018-09-05T04:31:41.015Z,32.77
2018-09-05T04:34:13.083Z,32.57
2018-09-05T04:36:45.178Z,32.57
2018-09-05T04:39:17.283Z,32.97
2018-09-05T04:41:49.593Z,32.83
2018-09-05T04:44:21.626Z,33.67
2018-09-05T04:46:53.677Z,35.60
2018-09-05T04:49:25.794Z,32.43
2018-09-05T04:51:57.865Z,34.60
2018-09-05T04:54:29.890Z,35.43
2018-09-05T04:57:01.936Z,34.97
2018-09-05T04:59:34.424Z,38.23
2018-09-05T05:02:06.410Z,36.43
2018-09-05T05:04:38.595Z,36.47
2018-09-05T05:07:10.563Z,34.17
2018-09-05T05:09:42.586Z,36.17
2018-09-05T05:12:14.690Z,35.47
2018-09-05T05:14:46.880Z,36.27
2018-09-05T05:17:18.990Z,35.10
2018-09-05T05:19:50.989Z,38.83
2018-09-05T05:22:22.993Z,38.50
2018-09-05T05:24:55.052Z,37.13
2018-09-05T05:27:27.085Z,38.53
2018-09-05T05:29:59.141Z,37.10
2018-09-05T05:32:31.210Z,39.63
2018-09-05T05:35:03.278Z,39.50
2018-09-05T05:37:35.399Z,42.07
2018-09-05T05:40:07.490Z,39.30
2018-09-05T05:42:39.498Z,39.80
2018-09-05T05:45:11.504Z,38.67
2018-09-05T05:47:43.563Z,41.57
2018-09-05T05:50:15.566Z,42.13
2018-09-05T05:52:47.675Z,44.73
2018-09-05T05:55:19.778Z,43.80
2018-09-05T05:57:51.804Z,45.00
2018-09-05T06:00:25.001Z,48.07
2018-09-05T06:02:57.071Z,42.23
2018-09-05T06:05:29.115Z,41.60
2018-09-05T06:08:01.139Z,46.07
2018-09-05T06:10:33.163Z,46.83
2018-09-05T06:13:05.293Z,46.20
2018-09-05T06:15:37.872Z,43.80
2018-09-05T06:18:09.882Z,45.30
2018-09-05T06:20:41.910Z,41.80
2018-09-05T06:23:13.909Z,42.27
2018-09-05T06:25:46.002Z,42.77
2018-09-05T06:28:18.074Z,42.53
2018-09-05T06:30:50.164Z,42.77
2018-09-05T06:33:22.290Z,42.63
2018-09-05T06:35:54.337Z,45.03
2018-09-05T06:38:26.414Z,45.03
2018-09-05T06:40:58.427Z,45.63
2018-09-05T06:43:30.449Z,46.40
2018-09-05T06:46:02.543Z,43.23
2018-09-05T06:48:34.559Z,45.30
2018-09-05T06:51:07.374Z,47.60
2018-09-05T06:53:39.358Z,46.97
2018-09-05T06:56:11.417Z,49.30
2018-09-05T06:58:43.455Z,46.37
2018-09-05T07:01:15.494Z,42.03
2018-09-05T07:03:47.509Z,43.13
2018-09-05T07:06:19.531Z,45.47
2018-09-05T07:08:51.634Z,45.10
2018-09-05T07:11:23.686Z,46.63
2018-09-05T07:13:55.759Z,47.77
2018-09-05T07:16:27.780Z,46.63
2018-09-05T07:18:59.877Z,46.50
2018-09-05T07:21:31.912Z,45.50
2018-09-05T07:24:04.310Z,46.40
2018-09-05T07:26:36.780Z,44.67
2018-09-05T07:29:08.838Z,44.47
2018-09-05T07:31:40.860Z,43.00
2018-09-05T07:34:12.930Z,42.73
2018-09-05T07:36:45.068Z,42.93
2018-09-05T07:39:17.094Z,39.97
2018-09-05T07:41:49.103Z,37.30
2018-09-05T07:44:21.218Z,35.27
2018-09-05T07:46:53.253Z,32.97
2018-09-05T07:49:25.814Z,32.67
2018-09-05T07:51:57.790Z,34.07
2018-09-05T07:54:29.910Z,32.73
2018-09-05T07:57:01.969Z,34.40
2018-09-05T07:59:33.993Z,34.23
2018-09-05T08:02:06.014Z,33.50
2018-09-05T08:04:38.133Z,33.53
2018-09-05T08:07:10.210Z,34.90
2018-09-05T08:09:42.305Z,32.00
2018-09-05T08:12:14.319Z,32.13
2018-09-05T08:14:46.302Z,29.85
2018-09-05T08:17:18.457Z,30.23
2018-09-05T08:19:50.511Z,29.42
2018-09-05T08:22:22.558Z,28.07
2018-09-05T08:24:55.083Z,29.65
2018-09-05T08:27:27.158Z,27.22
2018-09-05T08:29:59.235Z,28.85
2018-09-05T08:32:31.234Z,28.00
2018-09-05T08:35:03.426Z,27.85
2018-09-05T08:37:35.479Z,27.55
2018-09-05T08:40:07.458Z,23.92
2018-09-05T08:42:39.543Z,23.70
2018-09-05T08:45:11.695Z,23.02
2018-09-05T08:47:43.725Z,31.80
2018-09-05T08:50:15.742Z,24.35
2018-09-05T08:52:47.851Z,23.38
2018-09-05T08:55:19.911Z,20.92
2018-09-05T08:57:51.910Z,20.08
2018-09-05T09:00:24.005Z,19.95
2018-09-05T09:02:56.044Z,17.17
2018-09-05T09:05:28.133Z,16.55
2018-09-05T09:08:00.157Z,17.67
2018-09-05T09:10:32.198Z,16.40
2018-09-05T09:13:04.325Z,14.90
2018-09-05T09:15:36.348Z,14.65
2018-09-05T09:18:08.701Z,14.35
2018-09-05T09:20:40.842Z,15.30
2018-09-05T09:23:12.881Z,13.53
2018-09-05T09:25:45.067Z,13.08
2018-09-05T09:28:17.155Z,13.28
2018-09-05T09:30:49.225Z,13.30
2018-09-05T09:33:21.262Z,13.32
2018-09-05T09:35:53.291Z,11.97
2018-09-05T09:38:25.346Z,12.13
2018-09-05T09:40:57.450Z,11.08
2018-09-05T09:43:29.529Z,10.50
2018-09-05T09:46:01.548Z,11.12
2018-09-05T09:48:33.607Z,10.50
2018-09-05T09:51:05.650Z,10.08
2018-09-05T09:53:37.710Z,10.38
2018-09-05T09:56:09.721Z,10.20
2018-09-05T09:58:41.805Z,9.55
2018-09-05T10:01:19.726Z,9.45
2018-09-05T10:03:57.759Z,9.53
2018-09-05T10:06:35.647Z,9.50
2018-09-05T10:09:13.861Z,10.18
2018-09-05T10:11:51.736Z,10.38
2018-09-05T10:14:29.694Z,9.15
2018-09-05T10:17:07.625Z,9.65
2018-09-05T10:19:39.627Z,8.98
2018-09-05T10:22:11.625Z,8.98
2018-09-05T10:24:43.682Z,8.80
2018-09-05T10:27:15.684Z,8.03
2018-09-05T10:29:47.732Z,7.75
2018-09-05T10:32:20.041Z,8.68
2018-09-05T10:34:52.614Z,8.05
2018-09-05T10:37:24.870Z,8.33
2018-09-05T10:39:56.877Z,7.78
2018-09-05T10:42:28.937Z,8.33
2018-09-05T10:45:00.941Z,7.72
2018-09-05T10:47:32.999Z,8.45
2018-09-05T10:50:05.131Z,7.28
2018-09-05T10:52:37.168Z,7.45
2018-09-05T10:55:09.215Z,7.53
2018-09-05T10:57:41.345Z,6.75
2018-09-05T11:00:13.418Z,8.00
2018-09-05T11:02:45.446Z,8.50
2018-09-05T11:05:17.464Z,7.37
2018-09-05T11:07:49.531Z,8.03
2018-09-05T11:10:21.618Z,7.33
2018-09-05T11:12:53.758Z,7.17
2018-09-05T11:15:25.847Z,6.80
2018-09-05T11:17:57.879Z,7.85
2018-09-05T11:20:29.984Z,7.37
2018-09-05T11:23:02.005Z,6.85
2018-09-05T11:25:34.110Z,7.00
2018-09-05T11:28:06.157Z,7.35
2018-09-05T11:30:38.207Z,6.40
2018-09-05T11:33:10.382Z,6.47
2018-09-05T11:35:42.481Z,7.58
2018-09-05T11:38:14.541Z,7.25
2018-09-05T11:40:47.068Z,6.42
2018-09-05T11:43:19.115Z,7.28
2018-09-05T11:45:51.281Z,7.72
2018-09-05T11:48:23.311Z,6.35
2018-09-05T11:50:55.378Z,6.90
2018-09-05T11:53:27.652Z,7.10
2018-09-05T11:55:59.790Z,6.87
2018-09-05T11:58:31.846Z,7.12
2018-09-05T12:01:03.957Z,7.05
2018-09-05T12:03:35.950Z,6.80
2018-09-05T12:06:08.077Z,7.62
2018-09-05T12:08:40.096Z,7.05
2018-09-05T12:11:12.190Z,6.05
2018-09-05T12:13:44.237Z,7.67
2018-09-05T12:16:16.252Z,6.70
2018-09-05T12:18:48.302Z,6.85
2018-09-05T12:21:20.471Z,6.67
2018-09-05T12:23:52.534Z,6.78
2018-09-05T12:26:24.635Z,7.03
2018-09-05T12:28:56.671Z,7.30
2018-09-05T12:31:28.724Z,6.20
2018-09-05T12:34:00.777Z,7.03
2018-09-05T12:36:32.850Z,6.83
2018-09-05T12:39:07.513Z,7.05
2018-09-05T12:41:39.936Z,6.83
2018-09-05T12:44:12.369Z,6.62
2018-09-05T12:46:44.451Z,6.92
2018-09-05T12:49:16.520Z,7.00
2018-09-05T12:51:48.545Z,6.25
2018-09-05T12:54:20.642Z,5.90
2018-09-05T12:56:52.665Z,5.80
2018-09-05T12:59:24.788Z,6.00
2018-09-05T13:01:56.776Z,6.83
2018-09-05T13:04:28.835Z,6.45
2018-09-05T13:07:00.876Z,5.53
2018-09-05T13:09:32.921Z,6.05
2018-09-05T13:12:04.942Z,6.20
2018-09-05T13:14:36.967Z,5.47
2018-09-05T13:17:09.000Z,5.35
2018-09-05T13:19:41.047Z,5.72
2018-09-05T13:22:13.081Z,5.65
2018-09-05T13:24:45.134Z,5.28
2018-09-05T13:27:17.212Z,5.75
2018-09-05T13:29:49.343Z,5.75
2018-09-05T13:32:21.357Z,5.42
2018-09-05T13:34:53.388Z,5.33
2018-09-05T13:37:25.454Z,5.62
2018-09-05T13:39:57.580Z,4.80
2018-09-05T13:42:29.638Z,5.75
2018-09-05T13:45:01.789Z,5.72
2018-09-05T13:47:33.770Z,5.97
2018-09-05T13:50:05.868Z,5.67
2018-09-05T13:52:37.969Z,5.62
2018-09-05T13:55:10.022Z,6.47
2018-09-05T13:57:42.105Z,6.00
2018-09-05T14:00:14.570Z,5.92
2018-09-05T14:02:46.994Z,5.65
2018-09-05T14:05:19.010Z,6.35
2018-09-05T14:07:51.034Z,5.75
2018-09-05T14:10:23.116Z,5.40
2018-09-05T14:12:55.140Z,5.00
2018-09-05T14:15:27.195Z,6.12
2018-09-05T14:17:59.277Z,4.90
2018-09-05T14:20:31.307Z,5.10
2018-09-05T14:23:03.377Z,5.58
2018-09-05T14:25:35.382Z,5.35
2018-09-05T14:28:07.991Z,5.87
2018-09-05T14:30:40.014Z,5.62
2018-09-05T14:33:12.287Z,5.87
2018-09-05T14:35:45.129Z,5.78
2018-09-05T14:38:17.234Z,6.03
2018-09-05T14:40:49.331Z,5.30
2018-09-05T14:43:21.389Z,5.60
2018-09-05T14:45:53.543Z,5.65
2018-09-05T14:48:25.605Z,5.65
2018-09-05T14:50:57.820Z,5.45
2018-09-05T14:53:29.844Z,5.62
2018-09-05T14:56:01.912Z,4.83
2018-09-05T14:58:33.929Z,5.53
2018-09-05T15:01:06.001Z,5.22
2018-09-05T15:03:38.037Z,5.12
2018-09-05T15:06:10.069Z,5.05
2018-09-05T15:08:42.192Z,5.30
2018-09-05T15:11:14.565Z,4.97
2018-09-05T15:13:46.934Z,5.45
2018-09-05T15:16:18.987Z,5.65
2018-09-05T15:18:51.003Z,4.92
2018-09-05T15:21:23.052Z,5.33
2018-09-05T15:23:55.185Z,5.55
2018-09-05T15:26:27.353Z,5.05
2018-09-05T15:28:59.382Z,5.00
2018-09-05T15:31:31.453Z,4.87
2018-09-05T15:34:03.464Z,4.87
2018-09-05T15:36:35.568Z,5.62
2018-09-05T15:39:08.490Z,5.53
2018-09-05T15:41:40.623Z,5.17
2018-09-05T15:44:12.660Z,5.87
2018-09-05T15:46:44.744Z,4.85
2018-09-05T15:49:16.801Z,5.35
2018-09-05T15:51:53.466Z,5.25
2018-09-05T15:54:26.265Z,5.17
2018-09-05T15:56:58.282Z,6.00
2018-09-05T15:59:30.317Z,5.60
2018-09-05T16:02:02.337Z,5.67
2018-09-05T16:04:34.452Z,5.58
2018-09-05T16:07:06.775Z,5.12
2018-09-05T16:09:38.878Z,5.33
2018-09-05T16:12:10.929Z,5.62
2018-09-05T16:14:42.964Z,5.42
2018-09-05T16:17:14.992Z,5.40
2018-09-05T16:19:47.062Z,5.85
2018-09-05T16:22:19.165Z,5.60
2018-09-05T16:24:51.183Z,5.25
2018-09-05T16:27:23.206Z,5.10
2018-09-05T16:29:55.336Z,4.97
2018-09-05T16:32:27.974Z,5.65
2018-09-05T16:35:00.037Z,4.92
2018-09-05T16:37:32.191Z,5.75
2018-09-05T16:40:04.218Z,5.47
2018-09-05T16:42:36.259Z,6.05
2018-09-05T16:45:08.293Z,5.08
2018-09-05T16:47:40.314Z,5.62
2018-09-05T16:50:12.383Z,5.72
2018-09-05T16:52:44.417Z,5.35
2018-09-05T16:55:16.519Z,5.50
2018-09-05T16:57:48.536Z,5.70
2018-09-05T17:00:20.546Z,6.30
2018-09-05T17:02:52.605Z,5.37
2018-09-05T17:05:24.664Z,5.67
2018-09-05T17:07:56.671Z,5.87
2018-09-05T17:10:29.131Z,6.10
2018-09-05T17:13:01.218Z,5.62
2018-09-05T17:15:33.253Z,5.87
2018-09-05T17:18:05.294Z,6.30
2018-09-05T17:20:37.433Z,6.25
2018-09-05T17:23:09.532Z,5.90
2018-09-05T17:25:41.571Z,6.67
2018-09-05T17:28:13.609Z,6.17
2018-09-05T17:30:45.782Z,6.58
2018-09-05T17:33:17.841Z,6.47
2018-09-05T17:35:49.862Z,6.50
2018-09-05T17:38:21.922Z,6.03
2018-09-05T17:40:53.992Z,6.00
2018-09-05T17:43:26.085Z,6.33
2018-09-05T17:45:58.129Z,5.70
2018-09-05T17:48:30.172Z,6.55
2018-09-05T17:51:02.186Z,6.27
2018-09-05T17:53:34.545Z,6.75
2018-09-05T17:56:06.626Z,6.73
2018-09-05T17:58:38.655Z,6.10
2018-09-05T18:01:14.354Z,5.83
2018-09-05T18:03:46.499Z,6.00
2018-09-05T18:06:18.650Z,5.90
2018-09-05T18:08:50.767Z,5.80
2018-09-05T18:11:22.832Z,5.60
2018-09-05T18:13:54.846Z,6.60
2018-09-05T18:16:26.850Z,6.73
2018-09-05T18:18:59.244Z,5.97
2018-09-05T18:21:31.382Z,5.90
2018-09-05T18:24:03.420Z,5.47
2018-09-05T18:26:42.377Z,8.33
2018-09-05T18:29:14.411Z,5.87
2018-09-05T18:31:46.406Z,6.37
2018-09-05T18:34:18.438Z,5.87
2018-09-05T18:36:50.668Z,6.70
2018-09-05T18:39:23.006Z,6.43
2018-09-05T18:41:55.054Z,6.10
2018-09-05T18:44:27.142Z,6.50
2018-09-05T18:46:59.138Z,6.70
2018-09-05T18:49:31.161Z,6.30
2018-09-05T18:52:03.191Z,6.73
2018-09-05T18:54:35.214Z,6.23
2018-09-05T18:57:07.237Z,6.57
2018-09-05T18:59:39.290Z,7.00
2018-09-05T19:02:11.368Z,6.57
2018-09-05T19:04:43.438Z,7.13
2018-09-05T19:07:15.477Z,7.10
2018-09-05T19:09:47.473Z,6.40
2018-09-05T19:12:19.502Z,6.47
2018-09-05T19:14:51.530Z,6.27
2018-09-05T19:17:23.604Z,6.30
2018-09-05T19:19:55.707Z,7.53
2018-09-05T19:22:27.772Z,6.67
2018-09-05T19:25:00.434Z,7.33
2018-09-05T19:27:32.470Z,6.90
2018-09-05T19:30:04.748Z,7.10
2018-09-05T19:32:36.970Z,7.63
2018-09-05T19:35:09.069Z,6.90
2018-09-05T19:37:41.148Z,6.80
2018-09-05T19:40:13.201Z,6.90
2018-09-05T19:42:45.256Z,6.83
2018-09-05T19:45:17.261Z,6.43
2018-09-05T19:47:49.351Z,6.17
2018-09-05T19:50:21.483Z,6.27
2018-09-05T19:52:53.535Z,5.80
2018-09-05T19:55:25.557Z,5.70
2018-09-05T19:57:57.650Z,5.93
2018-09-05T20:00:29.658Z,6.10
2018-09-05T20:03:01.798Z,5.67
2018-09-05T20:05:33.827Z,6.03
2018-09-05T20:08:05.914Z,5.53
2018-09-05T20:10:37.966Z,5.93
2018-09-05T20:13:10.057Z,5.83
2018-09-05T20:15:42.122Z,6.00
2018-09-05T20:18:14.243Z,6.37
2018-09-05T20:20:46.279Z,5.57
2018-09-05T20:23:18.393Z,6.40
2018-09-05T20:25:50.377Z,6.03
2018-09-05T20:28:22.420Z,6.10
2018-09-05T20:30:54.468Z,7.00
2018-09-05T20:33:26.526Z,6.50
2018-09-05T20:35:58.681Z,6.57
2018-09-05T20:38:30.746Z,7.33
2018-09-05T20:41:02.883Z,6.87
2018-09-05T20:43:34.980Z,7.13
2018-09-05T20:46:07.011Z,5.97
2018-09-05T20:48:39.096Z,6.27
2018-09-05T20:51:11.345Z,6.13
2018-09-05T20:53:43.383Z,6.70
2018-09-05T20:56:15.434Z,6.33
2018-09-05T20:58:47.535Z,6.67
2018-09-05T21:01:19.543Z,6.73
2018-09-05T21:03:51.628Z,6.40
2018-09-05T21:06:23.666Z,6.80
2018-09-05T21:08:55.667Z,6.07
2018-09-05T21:11:27.705Z,6.67
2018-09-05T21:13:59.741Z,6.50
2018-09-05T21:16:31.828Z,7.03
2018-09-05T21:19:03.869Z,6.17
2018-09-05T21:21:35.894Z,6.53
2018-09-05T21:24:07.902Z,7.13
2018-09-05T21:26:39.930Z,6.80
2018-09-05T21:29:11.930Z,7.13
2018-09-05T21:31:43.966Z,6.17
2018-09-05T21:34:16.050Z,6.87
2018-09-05T21:36:48.144Z,6.40
2018-09-05T21:39:20.226Z,5.67
2018-09-05T21:41:52.317Z,6.60
2018-09-05T21:44:24.359Z,6.30
2018-09-05T21:46:56.393Z,7.00
2018-09-05T21:49:28.404Z,6.47
2018-09-05T21:52:00.496Z,6.97
2018-09-05T21:54:32.882Z,7.43
2018-09-05T21:57:04.941Z,6.93
2018-09-05T21:59:36.916Z,6.90
2018-09-05T22:02:09.024Z,7.23
2018-09-05T22:04:41.066Z,6.87
2018-09-05T22:07:13.054Z,6.77
2018-09-05T22:09:45.080Z,7.20
2018-09-05T22:12:17.068Z,6.20
2018-09-05T22:14:49.084Z,6.80
2018-09-05T22:17:21.100Z,7.70
2018-09-05T22:19:53.140Z,7.43
2018-09-05T22:22:25.169Z,6.47
2018-09-05T22:24:57.186Z,7.37
2018-09-05T22:27:29.261Z,7.33
2018-09-05T22:30:01.306Z,6.80
2018-09-05T22:32:33.347Z,7.80
2018-09-05T22:35:05.425Z,7.37
2018-09-05T22:37:37.482Z,7.67
2018-09-05T22:40:09.493Z,6.73
2018-09-05T22:42:53.074Z,7.80
2018-09-05T22:45:36.706Z,7.83
2018-09-05T22:48:26.121Z,7.80
2018-09-05T22:51:15.808Z,7.63
2018-09-05T22:54:06.420Z,8.40
2018-09-05T22:56:56.645Z,7.73
2018-09-05T22:59:43.290Z,8.83
2018-09-05T23:02:31.978Z,8.13
2018-09-05T23:08:17.966Z,7.23
2018-09-05T23:11:01.663Z,7.50
2018-09-05T23:13:45.323Z,7.67
2018-09-05T23:17:32.359Z,8.73
2018-09-05T23:20:13.639Z,8.23
2018-09-05T23:22:57.393Z,8.57
2018-09-05T23:25:29.466Z,8.80
2018-09-05T23:28:01.527Z,8.80
2018-09-05T23:30:33.615Z,8.53
2018-09-05T23:33:05.658Z,9.07
2018-09-05T23:35:37.659Z,8.63
2018-09-05T23:38:09.745Z,8.60
2018-09-05T23:40:41.799Z,8.60
2018-09-05T23:43:13.808Z,9.63
2018-09-05T23:45:45.826Z,9.03
2018-09-05T23:48:17.871Z,9.47
2018-09-05T23:50:49.945Z,10.20
2018-09-05T23:53:22.016Z,9.87
2018-09-05T23:55:54.227Z,9.57
2018-09-05T23:58:26.342Z,9.97
